sensor_id;sensor_type;location;lat;lon;timestamp;pressure;altitude;pressure_sealevel;temperature;humidity
74834;BME280;63361;52.384;20.930;2024-03-23T00:51:41;99873.03;;;7.71;100.00
74834;BME280;63361;52.384;20.930;2024-03-23T00:54:06;99870.91;;;7.68;100.00
74834;BME280;63361;52.384;20.930;2024-03-23T00:56:31;99853.47;;;7.61;100.00
74834;BME280;63361;52.384;20.930;2024-03-23T00:58:57;99847.31;;;7.55;100.00
74834;BME280;63361;52.384;20.930;2024-03-23T01:01:22;99862.88;;;7.63;100.00
74834;BME280;63361;52.384;20.930;2024-03-23T01:03:47;99859.09;;;7.64;100.00
74834;BME280;63361;52.384;20.930;2024-03-23T01:06:13;99858.00;;;7.65;100.00
74834;BME280;63361;52.384;20.930;2024-03-23T01:08:38;99858.03;;;7.60;100.00
74834;BME280;63361;52.384;20.930;2024-03-23T01:11:03;99863.91;;;7.67;100.00
74834;BME280;63361;52.384;20.930;2024-03-23T01:13:29;99865.25;;;7.70;100.00
74834;BME280;63361;52.384;20.930;2024-03-23T01:15:56;99857.19;;;7.70;100.00
74834;BME280;63361;52.384;20.930;2024-03-23T01:18:23;99870.63;;;7.70;100.00
74834;BME280;63361;52.384;20.930;2024-03-23T01:20:48;99869.00;;;7.74;100.00
74834;BME280;63361;52.384;20.930;2024-03-23T01:23:14;99844.06;;;7.63;100.00
74834;BME280;63361;52.384;20.930;2024-03-23T01:25:40;99867.66;;;7.71;100.00
74834;BME280;63361;52.384;20.930;2024-03-23T01:28:06;99844.06;;;7.58;100.00
74834;BME280;63361;52.384;20.930;2024-03-23T01:30:32;99871.16;;;7.67;100.00
74834;BME280;63361;52.384;20.930;2024-03-23T01:32:57;99856.44;;;7.54;100.00
74834;BME280;63361;52.384;20.930;2024-03-23T01:35:23;99848.91;;;7.56;100.00
74834;BME280;63361;52.384;20.930;2024-03-23T01:37:48;99846.75;;;7.58;100.00
74834;BME280;63361;52.384;20.930;2024-03-23T01:40:14;99841.41;;;7.58;100.00
74834;BME280;63361;52.384;20.930;2024-03-23T01:42:41;99860.19;;;7.63;100.00
74834;BME280;63361;52.384;20.930;2024-03-23T01:45:08;99807.63;;;7.37;100.00
74834;BME280;63361;52.384;20.930;2024-03-23T01:47:34;99841.94;;;7.60;100.00
74834;BME280;63361;52.384;20.930;2024-03-23T01:49:59;99827.97;;;7.53;100.00
74834;BME280;63361;52.384;20.930;2024-03-23T01:52:26;99842.19;;;7.59;100.00
74834;BME280;63361;52.384;20.930;2024-03-23T01:54:52;99843.75;;;7.70;100.00
74834;BME280;63361;52.384;20.930;2024-03-23T01:57:19;99834.63;;;7.66;100.00
74834;BME280;63361;52.384;20.930;2024-03-23T01:59:45;99841.88;;;7.65;100.00
74834;BME280;63361;52.384;20.930;2024-03-23T02:02:11;99848.34;;;7.69;100.00
74834;BME280;63361;52.384;20.930;2024-03-23T02:04:36;99807.06;;;7.45;100.00
74834;BME280;63361;52.384;20.930;2024-03-23T02:07:01;99829.56;;;7.59;100.00
74834;BME280;63361;52.384;20.930;2024-03-23T02:09:27;99831.47;;;7.59;100.00
74834;BME280;63361;52.384;20.930;2024-03-23T02:11:52;99809.22;;;7.48;100.00
74834;BME280;63361;52.384;20.930;2024-03-23T02:14:17;99827.16;;;7.58;100.00
74834;BME280;63361;52.384;20.930;2024-03-23T02:16:43;99830.09;;;7.61;100.00
74834;BME280;63361;52.384;20.930;2024-03-23T02:19:08;99833.03;;;7.65;100.00
74834;BME280;63361;52.384;20.930;2024-03-23T02:21:33;99822.53;;;7.68;100.00
74834;BME280;63361;52.384;20.930;2024-03-23T02:23:59;99827.13;;;7.68;100.00
74834;BME280;63361;52.384;20.930;2024-03-23T02:26:25;99800.31;;;7.58;100.00
74834;BME280;63361;52.384;20.930;2024-03-23T02:28:51;99815.03;;;7.65;100.00
74834;BME280;63361;52.384;20.930;2024-03-23T02:31:16;99830.31;;;7.75;100.00
74834;BME280;63361;52.384;20.930;2024-03-23T02:33:41;99804.31;;;7.60;100.00
74834;BME280;63361;52.384;20.930;2024-03-23T02:36:07;99810.19;;;7.67;100.00
74834;BME280;63361;52.384;20.930;2024-03-23T02:38:32;99804.81;;;7.72;100.00
74834;BME280;63361;52.384;20.930;2024-03-23T02:41:04;99824.16;;;7.74;100.00
74834;BME280;63361;52.384;20.930;2024-03-23T02:43:30;99795.19;;;7.61;100.00
74834;BME280;63361;52.384;20.930;2024-03-23T02:45:55;99792.19;;;7.68;100.00
74834;BME280;63361;52.384;20.930;2024-03-23T02:48:21;99778.28;;;7.61;100.00
74834;BME280;63361;52.384;20.930;2024-03-23T02:50:46;99789.03;;;7.61;100.00
74834;BME280;63361;52.384;20.930;2024-03-23T02:53:11;99793.00;;;7.68;100.00
74834;BME280;63361;52.384;20.930;2024-03-23T02:55:37;99791.91;;;7.69;100.00
74834;BME280;63361;52.384;20.930;2024-03-23T02:58:02;99791.91;;;7.69;100.00
74834;BME280;63361;52.384;20.930;2024-03-23T03:00:28;99787.88;;;7.72;100.00
74834;BME280;63361;52.384;20.930;2024-03-23T03:02:54;99796.97;;;7.81;100.00
74834;BME280;63361;52.384;20.930;2024-03-23T03:05:19;99783.59;;;7.71;100.00
74834;BME280;63361;52.384;20.930;2024-03-23T03:07:44;99793.25;;;7.77;100.00
74834;BME280;63361;52.384;20.930;2024-03-23T03:10:10;99786.00;;;7.72;100.00
74834;BME280;63361;52.384;20.930;2024-03-23T03:12:36;99799.09;;;7.89;100.00
74834;BME280;63361;52.384;20.930;2024-03-23T03:15:03;99794.81;;;7.83;100.00
74834;BME280;63361;52.384;20.930;2024-03-23T03:17:30;99793.47;;;7.81;100.00
74834;BME280;63361;52.384;20.930;2024-03-23T03:19:55;99788.41;;;7.79;100.00
74834;BME280;63361;52.384;20.930;2024-03-23T03:22:24;99777.66;;;7.74;100.00
74834;BME280;63361;52.384;20.930;2024-03-23T03:24:49;99776.59;;;7.75;100.00
74834;BME280;63361;52.384;20.930;2024-03-23T03:27:15;99771.97;;;7.81;100.00
74834;BME280;63361;52.384;20.930;2024-03-23T03:29:40;99777.34;;;7.86;100.00
74834;BME280;63361;52.384;20.930;2024-03-23T03:32:06;99777.59;;;7.84;100.00
74834;BME280;63361;52.384;20.930;2024-03-23T03:34:31;99774.66;;;7.81;100.00
74834;BME280;63361;52.384;20.930;2024-03-23T03:36:57;99785.94;;;7.88;100.00
74834;BME280;63361;52.384;20.930;2024-03-23T03:39:23;99781.09;;;7.85;100.00
74834;BME280;63361;52.384;20.930;2024-03-23T03:41:49;99777.34;;;7.86;100.00
74834;BME280;63361;52.384;20.930;2024-03-23T03:44:14;99789.09;;;7.95;100.00
74834;BME280;63361;52.384;20.930;2024-03-23T03:46:39;99797.16;;;7.95;100.00
74834;BME280;63361;52.384;20.930;2024-03-23T03:49:05;99786.41;;;7.95;100.00
74834;BME280;63361;52.384;20.930;2024-03-23T03:51:30;99797.16;;;7.95;100.00
74834;BME280;63361;52.384;20.930;2024-03-23T03:53:56;99794.44;;;8.00;100.00
74834;BME280;63361;52.384;20.930;2024-03-23T03:56:21;99784.25;;;7.97;100.00
74834;BME280;63361;52.384;20.930;2024-03-23T03:58:47;99790.97;;;7.99;100.00
74834;BME280;63361;52.384;20.930;2024-03-23T04:01:13;99758.28;;;7.82;100.00
74834;BME280;63361;52.384;20.930;2024-03-23T04:03:38;99783.97;;;7.98;100.00
74834;BME280;63361;52.384;20.930;2024-03-23T04:06:08;99770.28;;;7.95;100.00
74834;BME280;63361;52.384;20.930;2024-03-23T04:08:34;99769.75;;;7.98;100.00
74834;BME280;63361;52.384;20.930;2024-03-23T04:10:59;99777.53;;;7.99;100.00
74834;BME280;63361;52.384;20.930;2024-03-23T04:13:25;99770.53;;;7.98;100.00
74834;BME280;63361;52.384;20.930;2024-03-23T04:15:54;99761.22;;;7.86;100.00
74834;BME280;63361;52.384;20.930;2024-03-23T04:18:20;99770.53;;;7.98;100.00
74834;BME280;63361;52.384;20.930;2024-03-23T04:20:45;99774.28;;;8.02;100.00
74834;BME280;63361;52.384;20.930;2024-03-23T04:23:11;99760.34;;;7.95;100.00
74834;BME280;63361;52.384;20.930;2024-03-23T04:25:37;99754.97;;;7.95;100.00
74834;BME280;63361;52.384;20.930;2024-03-23T04:28:02;99747.22;;;7.94;100.00
74834;BME280;63361;52.384;20.930;2024-03-23T04:30:28;99741.06;;;7.88;100.00
74834;BME280;63361;52.384;20.930;2024-03-23T04:32:54;99738.34;;;7.93;100.00
74834;BME280;63361;52.384;20.930;2024-03-23T04:35:20;99742.63;;;7.94;100.00
74834;BME280;63361;52.384;20.930;2024-03-23T04:37:47;99739.38;;;7.97;100.00
74834;BME280;63361;52.384;20.930;2024-03-23T04:40:12;99739.66;;;7.96;100.00
74834;BME280;63361;52.384;20.930;2024-03-23T04:42:38;99740.97;;;7.98;100.00
74834;BME280;63361;52.384;20.930;2024-03-23T04:45:04;99738.47;;;8.12;100.00
74834;BME280;63361;52.384;20.930;2024-03-23T04:47:31;99738.78;;;8.05;100.00
74834;BME280;63361;52.384;20.930;2024-03-23T04:49:56;99713.28;;;8.03;100.00
74834;BME280;63361;52.384;20.930;2024-03-23T04:52:22;99702.88;;;7.91;100.00
74834;BME280;63361;52.384;20.930;2024-03-23T04:54:47;99708.53;;;7.90;100.00
74834;BME280;63361;52.384;20.930;2024-03-23T04:57:12;99731.47;;;8.11;100.00
74834;BME280;63361;52.384;20.930;2024-03-23T04:59:38;99704.44;;;7.97;100.00
74834;BME280;63361;52.384;20.930;2024-03-23T05:02:03;99713.72;;;8.15;100.00
74834;BME280;63361;52.384;20.930;2024-03-23T05:04:29;99720.72;;;8.11;100.00
74834;BME280;63361;52.384;20.930;2024-03-23T05:06:54;99723.38;;;8.21;100.00
74834;BME280;63361;52.384;20.930;2024-03-23T05:09:20;99736.25;;;8.24;100.00
74834;BME280;63361;52.384;20.930;2024-03-23T05:11:46;99730.56;;;8.26;100.00
74834;BME280;63361;52.384;20.930;2024-03-23T05:14:13;99697.41;;;8.06;100.00
74834;BME280;63361;52.384;20.930;2024-03-23T05:16:39;99725.00;;;8.17;100.00
74834;BME280;63361;52.384;20.930;2024-03-23T05:19:04;99746.94;;;8.29;100.00
74834;BME280;63361;52.384;20.930;2024-03-23T05:21:29;99745.59;;;8.37;100.00
74834;BME280;63361;52.384;20.930;2024-03-23T05:23:55;99736.47;;;8.33;100.00
74834;BME280;63361;52.384;20.930;2024-03-23T05:26:22;99726.56;;;8.23;100.00
74834;BME280;63361;52.384;20.930;2024-03-23T05:28:47;99736.72;;;8.31;100.00
74834;BME280;63361;52.384;20.930;2024-03-23T05:31:22;99728.66;;;8.31;100.00
74834;BME280;63361;52.384;20.930;2024-03-23T05:33:48;99735.66;;;8.32;100.00
74834;BME280;63361;52.384;20.930;2024-03-23T05:36:13;99713.63;;;8.25;100.00
74834;BME280;63361;52.384;20.930;2024-03-23T05:38:39;99699.69;;;8.23;100.00
74834;BME280;63361;52.384;20.930;2024-03-23T05:41:04;99690.28;;;8.21;100.00
74834;BME280;63361;52.384;20.930;2024-03-23T05:43:30;99704.47;;;8.26;100.00
74834;BME280;63361;52.384;20.930;2024-03-23T05:45:57;99695.84;;;8.29;100.00
74834;BME280;63361;52.384;20.930;2024-03-23T05:48:23;99667.47;;;8.18;100.00
74834;BME280;63361;52.384;20.930;2024-03-23T05:50:49;99683.22;;;8.30;100.00
74834;BME280;63361;52.384;20.930;2024-03-23T05:53:16;99701.47;;;8.38;100.00
74834;BME280;63361;52.384;20.930;2024-03-23T05:55:41;99682.41;;;8.34;100.00
74834;BME280;63361;52.384;20.930;2024-03-23T05:58:07;99697.09;;;8.47;100.00
74834;BME280;63361;52.384;20.930;2024-03-23T06:00:33;99699.72;;;8.52;100.00
74834;BME280;63361;52.384;20.930;2024-03-23T06:02:58;99689.50;;;8.54;100.00
74834;BME280;63361;52.384;20.930;2024-03-23T06:05:24;99702.78;;;8.69;100.00
74834;BME280;63361;52.384;20.930;2024-03-23T06:07:49;99694.81;;;8.59;100.00
74834;BME280;63361;52.384;20.930;2024-03-23T06:10:15;99695.56;;;8.65;100.00
74834;BME280;63361;52.384;20.930;2024-03-23T06:12:41;99661.94;;;8.38;100.00
74834;BME280;63361;52.384;20.930;2024-03-23T06:15:07;99672.75;;;8.57;100.00
74834;BME280;63361;52.384;20.930;2024-03-23T06:17:36;99699.59;;;8.67;100.00
74834;BME280;63361;52.384;20.930;2024-03-23T06:20:01;99699.16;;;8.55;100.00
74834;BME280;63361;52.384;20.930;2024-03-23T06:22:27;99697.03;;;8.52;100.00
74834;BME280;63361;52.384;20.930;2024-03-23T06:24:52;99689.44;;;8.59;100.00
74834;BME280;63361;52.384;20.930;2024-03-23T06:27:17;99677.16;;;8.48;100.00
74834;BME280;63361;52.384;20.930;2024-03-23T06:29:43;99667.38;;;8.57;100.00
74834;BME280;63361;52.384;20.930;2024-03-23T06:32:08;99673.81;;;8.61;100.00
74834;BME280;63361;52.384;20.930;2024-03-23T06:34:33;99654.53;;;8.54;100.00
74834;BME280;63361;52.384;20.930;2024-03-23T06:36:59;99687.75;;;8.68;100.00
74834;BME280;63361;52.384;20.930;2024-03-23T06:39:24;99659.09;;;8.54;100.00
74834;BME280;63361;52.384;20.930;2024-03-23T06:41:54;99670.44;;;8.74;100.00
74834;BME280;63361;52.384;20.930;2024-03-23T06:44:19;99659.97;;;8.73;100.00
74834;BME280;63361;52.384;20.930;2024-03-23T06:46:45;99662.38;;;8.74;100.00
74834;BME280;63361;52.384;20.930;2024-03-23T06:49:11;99669.81;;;8.82;100.00
74834;BME280;63361;52.384;20.930;2024-03-23T06:51:36;99619.72;;;8.63;100.00
74834;BME280;63361;52.384;20.930;2024-03-23T06:54:05;99603.19;;;8.51;100.00
74834;BME280;63361;52.384;20.930;2024-03-23T06:56:30;99644.25;;;8.85;100.00
74834;BME280;63361;52.384;20.930;2024-03-23T06:58:57;99649.09;;;8.83;100.00
74834;BME280;63361;52.384;20.930;2024-03-23T07:01:22;99652.06;;;8.81;100.00
74834;BME280;63361;52.384;20.930;2024-03-23T07:03:48;99615.91;;;8.69;100.00
74834;BME280;63361;52.384;20.930;2024-03-23T07:06:13;99631.88;;;8.84;100.00
74834;BME280;63361;52.384;20.930;2024-03-23T07:08:38;99627.50;;;8.88;100.00
74834;BME280;63361;52.384;20.930;2024-03-23T07:11:04;99642.91;;;8.82;100.00
74834;BME280;63361;52.384;20.930;2024-03-23T07:13:30;99599.41;;;8.52;100.00
74834;BME280;63361;52.384;20.930;2024-03-23T07:15:55;99638.44;;;8.73;100.00
74834;BME280;63361;52.384;20.930;2024-03-23T07:18:21;99636.78;;;8.77;100.00
74834;BME280;63361;52.384;20.930;2024-03-23T07:20:56;99617.56;;;8.65;100.00
74834;BME280;63361;52.384;20.930;2024-03-23T07:23:23;99608.44;;;8.61;100.00
74834;BME280;63361;52.384;20.930;2024-03-23T07:26:04;99624.25;;;8.67;100.00
74834;BME280;63361;52.384;20.930;2024-03-23T07:28:31;99604.50;;;8.53;100.00
74834;BME280;63361;52.384;20.930;2024-03-23T07:31:04;99617.88;;;8.58;100.00
74834;BME280;63361;52.384;20.930;2024-03-23T07:33:31;99633.13;;;8.68;100.00
74834;BME280;63361;52.384;20.930;2024-03-23T07:35:56;99633.13;;;8.68;100.00
74834;BME280;63361;52.384;20.930;2024-03-23T07:38:23;99627.03;;;8.57;100.00
74834;BME280;63361;52.384;20.930;2024-03-23T07:40:48;99615.34;;;8.43;100.00
74834;BME280;63361;52.384;20.930;2024-03-23T07:43:21;99608.91;;;8.44;100.00
74834;BME280;63361;52.384;20.930;2024-03-23T07:45:53;99612.16;;;8.41;100.00
74834;BME280;63361;52.384;20.930;2024-03-23T07:48:18;99607.53;;;8.46;100.00
74834;BME280;63361;52.384;20.930;2024-03-23T07:50:43;99612.09;;;8.46;100.00
74834;BME280;63361;52.384;20.930;2024-03-23T07:53:09;99598.69;;;8.41;100.00
74834;BME280;63361;52.384;20.930;2024-03-23T07:55:34;99597.53;;;8.52;100.00
74834;BME280;63361;52.384;20.930;2024-03-23T07:57:59;99595.22;;;8.64;100.00
74834;BME280;63361;52.384;20.930;2024-03-23T08:02:40;99585.31;;;8.60;100.00
74834;BME280;63361;52.384;20.930;2024-03-23T08:05:06;99578.06;;;8.60;100.00
74834;BME280;63361;52.384;20.930;2024-03-23T08:07:32;99585.72;;;8.72;100.00
74834;BME280;63361;52.384;20.930;2024-03-23T08:09:58;99581.75;;;8.88;100.00
74834;BME280;63361;52.384;20.930;2024-03-23T08:12:24;99583.88;;;8.91;100.00
74834;BME280;63361;52.384;20.930;2024-03-23T08:14:50;99592.69;;;8.97;100.00
74834;BME280;63361;52.384;20.930;2024-03-23T08:17:15;99578.75;;;8.90;100.00
74834;BME280;63361;52.384;20.930;2024-03-23T08:19:40;99585.03;;;9.04;100.00
74834;BME280;63361;52.384;20.930;2024-03-23T08:22:06;99570.41;;;8.91;100.00
74834;BME280;63361;52.384;20.930;2024-03-23T08:24:31;99558.94;;;8.86;100.00
74834;BME280;63361;52.384;20.930;2024-03-23T08:26:56;99551.75;;;8.76;100.00
74834;BME280;63361;52.384;20.930;2024-03-23T08:29:22;99547.78;;;8.92;100.00
74834;BME280;63361;52.384;20.930;2024-03-23T08:31:47;99543.66;;;9.00;100.00
74834;BME280;63361;52.384;20.930;2024-03-23T08:34:13;99554.22;;;9.15;100.00
74834;BME280;63361;52.384;20.930;2024-03-23T08:36:38;99537.16;;;9.38;100.00
74834;BME280;63361;52.384;20.930;2024-03-23T08:39:03;99527.78;;;9.68;100.00
74834;BME280;63361;52.384;20.930;2024-03-23T08:41:29;99532.88;;;10.16;100.00
74834;BME280;63361;52.384;20.930;2024-03-23T08:43:55;99515.88;;;11.64;100.00
74834;BME280;63361;52.384;20.930;2024-03-23T08:46:20;99479.03;;;11.91;100.00
74834;BME280;63361;52.384;20.930;2024-03-23T08:48:47;99491.06;;;12.24;100.00
74834;BME280;63361;52.384;20.930;2024-03-23T08:51:15;99459.25;;;12.21;100.00
74834;BME280;63361;52.384;20.930;2024-03-23T08:53:41;99441.44;;;12.38;100.00
74834;BME280;63361;52.384;20.930;2024-03-23T08:56:08;99421.56;;;12.33;100.00
74834;BME280;63361;52.384;20.930;2024-03-23T08:58:35;99402.16;;;13.26;100.00
74834;BME280;63361;52.384;20.930;2024-03-23T09:01:08;99398.41;;;13.95;100.00
74834;BME280;63361;52.384;20.930;2024-03-23T09:03:34;99394.69;;;13.70;100.00
74834;BME280;63361;52.384;20.930;2024-03-23T09:06:00;99384.97;;;13.69;100.00
74834;BME280;63361;52.384;20.930;2024-03-23T09:08:26;99390.78;;;12.12;100.00
74834;BME280;63361;52.384;20.930;2024-03-23T09:10:52;99401.59;;;12.12;100.00
74834;BME280;63361;52.384;20.930;2024-03-23T09:13:18;99379.09;;;11.86;100.00
74834;BME280;63361;52.384;20.930;2024-03-23T09:15:48;99389.75;;;11.51;100.00
74834;BME280;63361;52.384;20.930;2024-03-23T09:18:13;99384.13;;;11.17;100.00
74834;BME280;63361;52.384;20.930;2024-03-23T09:20:39;99376.84;;;11.48;100.00
74834;BME280;63361;52.384;20.930;2024-03-23T09:23:04;99371.91;;;11.81;100.00
74834;BME280;63361;52.384;20.930;2024-03-23T09:25:30;99366.97;;;11.75;100.00
74834;BME280;63361;52.384;20.930;2024-03-23T09:27:55;99373.56;;;12.00;100.00
74834;BME280;63361;52.384;20.930;2024-03-23T09:30:20;99362.75;;;12.00;100.00
74834;BME280;63361;52.384;20.930;2024-03-23T09:32:46;99363.72;;;11.64;100.00
74834;BME280;63361;52.384;20.930;2024-03-23T09:35:11;99352.09;;;11.55;100.00
74834;BME280;63361;52.384;20.930;2024-03-23T09:37:38;99359.38;;;11.15;100.00
74834;BME280;63361;52.384;20.930;2024-03-23T09:40:06;99363.16;;;10.91;100.00
74834;BME280;63361;52.384;20.930;2024-03-23T09:42:34;99366.06;;;10.95;100.00
74834;BME280;63361;52.384;20.930;2024-03-23T09:45:00;99364.16;;;10.96;100.00
74834;BME280;63361;52.384;20.930;2024-03-23T09:47:26;99351.88;;;11.12;100.00
74834;BME280;63361;52.384;20.930;2024-03-23T09:49:52;99358.50;;;11.06;100.00
74834;BME280;63361;52.384;20.930;2024-03-23T09:52:18;99344.66;;;11.30;100.00
74834;BME280;63361;52.384;20.930;2024-03-23T09:54:44;99326.91;;;11.46;100.00
74834;BME280;63361;52.384;20.930;2024-03-23T09:57:09;99337.94;;;11.97;100.00
74834;BME280;63361;52.384;20.930;2024-03-23T09:59:35;99324.22;;;13.15;100.00
74834;BME280;63361;52.384;20.930;2024-03-23T10:02:04;99312.16;;;15.04;100.00
74834;BME280;63361;52.384;20.930;2024-03-23T10:04:42;99285.66;;;17.22;100.00
74834;BME280;63361;52.384;20.930;2024-03-23T10:07:18;99273.69;;;19.51;100.00
74834;BME280;63361;52.384;20.930;2024-03-23T10:09:44;99268.03;;;18.37;100.00
74834;BME280;63361;52.384;20.930;2024-03-23T10:12:16;99257.06;;;19.18;100.00
74834;BME280;63361;52.384;20.930;2024-03-23T10:14:42;99249.41;;;17.53;100.00
74834;BME280;63361;52.384;20.930;2024-03-23T10:19:41;99238.94;;;16.49;100.00
74834;BME280;63361;52.384;20.930;2024-03-23T10:22:08;99227.03;;;16.13;100.00
74834;BME280;63361;52.384;20.930;2024-03-23T10:24:34;99228.31;;;17.19;100.00
74834;BME280;63361;52.384;20.930;2024-03-23T10:27:00;99208.69;;;18.76;100.00
74834;BME280;63361;52.384;20.930;2024-03-23T10:29:25;99202.59;;;20.48;97.75
74834;BME280;63361;52.384;20.930;2024-03-23T10:31:52;99177.25;;;19.91;100.00
74834;BME280;63361;52.384;20.930;2024-03-23T10:34:25;99197.09;;;21.84;85.74
74834;BME280;63361;52.384;20.930;2024-03-23T10:36:53;99192.75;;;21.25;87.50
74834;BME280;63361;52.384;20.930;2024-03-23T10:39:20;99179.84;;;20.11;89.52
74834;BME280;63361;52.384;20.930;2024-03-23T10:41:49;99184.22;;;20.89;81.60
74834;BME280;63361;52.384;20.930;2024-03-23T10:44:17;99177.13;;;20.48;82.87
74834;BME280;63361;52.384;20.930;2024-03-23T10:46:44;99186.16;;;20.48;84.77
74834;BME280;63361;52.384;20.930;2024-03-23T10:49:10;99155.28;;;19.88;87.39
74834;BME280;63361;52.384;20.930;2024-03-23T10:51:37;99159.81;;;20.81;79.65
74834;BME280;63361;52.384;20.930;2024-03-23T10:54:04;99160.47;;;20.67;76.22
74834;BME280;63361;52.384;20.930;2024-03-23T10:56:32;99148.25;;;21.56;75.72
74834;BME280;63361;52.384;20.930;2024-03-23T10:59:01;99137.94;;;21.35;75.87
74834;BME280;63361;52.384;20.930;2024-03-23T11:01:29;99138.78;;;19.02;87.34
74834;BME280;63361;52.384;20.930;2024-03-23T11:03:54;99127.72;;;18.07;96.20
74834;BME280;63361;52.384;20.930;2024-03-23T11:06:38;99124.09;;;20.70;81.71
74834;BME280;63361;52.384;20.930;2024-03-23T11:14:50;99126.63;;;20.49;71.68
74834;BME280;63361;52.384;20.930;2024-03-23T11:17:23;99132.91;;;20.97;72.32
74834;BME280;63361;52.384;20.930;2024-03-23T11:19:57;99139.75;;;20.69;69.12
74834;BME280;63361;52.384;20.930;2024-03-23T11:25:27;99137.84;;;24.07;59.62
74834;BME280;63361;52.384;20.930;2024-03-23T11:27:55;99122.25;;;23.61;55.63
74834;BME280;63361;52.384;20.930;2024-03-23T11:32:50;99104.94;;;22.08;60.75
74834;BME280;63361;52.384;20.930;2024-03-23T11:35:29;99110.28;;;20.22;63.75
74834;BME280;63361;52.384;20.930;2024-03-23T11:38:05;99091.47;;;18.52;70.60
74834;BME280;63361;52.384;20.930;2024-03-23T11:40:31;99080.59;;;18.55;76.39
74834;BME280;63361;52.384;20.930;2024-03-23T11:43:01;99077.66;;;17.99;80.64
74834;BME280;63361;52.384;20.930;2024-03-23T11:45:28;99073.78;;;17.07;80.52
74834;BME280;63361;52.384;20.930;2024-03-23T11:48:07;99073.19;;;16.82;84.15
74834;BME280;63361;52.384;20.930;2024-03-23T11:50:34;99056.91;;;16.23;94.19
74834;BME280;63361;52.384;20.930;2024-03-23T11:53:08;99037.59;;;16.28;99.05
74834;BME280;63361;52.384;20.930;2024-03-23T11:55:51;99051.09;;;16.09;96.64
74834;BME280;63361;52.384;20.930;2024-03-23T11:58:18;99030.78;;;15.91;99.26
74834;BME280;63361;52.384;20.930;2024-03-23T12:00:56;99027.38;;;15.94;99.07
74834;BME280;63361;52.384;20.930;2024-03-23T12:03:22;99033.63;;;16.10;100.00
74834;BME280;63361;52.384;20.930;2024-03-23T12:05:52;99012.19;;;15.93;100.00
74834;BME280;63361;52.384;20.930;2024-03-23T12:08:25;99026.78;;;16.00;100.00
74834;BME280;63361;52.384;20.930;2024-03-23T12:13:32;99026.97;;;15.64;100.00
74834;BME280;63361;52.384;20.930;2024-03-23T12:16:11;99020.28;;;15.21;100.00
74834;BME280;63361;52.384;20.930;2024-03-23T12:18:40;98991.72;;;14.87;100.00
74834;BME280;63361;52.384;20.930;2024-03-23T12:21:06;98981.09;;;14.70;100.00
74834;BME280;63361;52.384;20.930;2024-03-23T12:23:32;98990.72;;;14.67;100.00
74834;BME280;63361;52.384;20.930;2024-03-23T12:25:57;99008.00;;;14.99;100.00
74834;BME280;63361;52.384;20.930;2024-03-23T12:28:23;98988.09;;;14.83;100.00
74834;BME280;63361;52.384;20.930;2024-03-23T12:30:48;98992.06;;;14.86;100.00
74834;BME280;63361;52.384;20.930;2024-03-23T12:33:14;98982.31;;;14.85;100.00
74834;BME280;63361;52.384;20.930;2024-03-23T12:35:39;98988.81;;;14.80;100.00
74834;BME280;63361;52.384;20.930;2024-03-23T12:38:04;98980.50;;;14.89;100.00
74834;BME280;63361;52.384;20.930;2024-03-23T12:40:30;98974.88;;;14.82;100.00
74834;BME280;63361;52.384;20.930;2024-03-23T12:42:55;98977.34;;;14.87;100.00
74834;BME280;63361;52.384;20.930;2024-03-23T12:45:24;98980.13;;;15.02;100.00
74834;BME280;63361;52.384;20.930;2024-03-23T12:47:49;98963.69;;;15.11;100.00
74834;BME280;63361;52.384;20.930;2024-03-23T12:50:15;98946.25;;;15.12;100.00
74834;BME280;63361;52.384;20.930;2024-03-23T12:52:40;98942.81;;;15.15;100.00
74834;BME280;63361;52.384;20.930;2024-03-23T12:55:06;98947.88;;;15.29;100.00
74834;BME280;63361;52.384;20.930;2024-03-23T12:57:32;98937.53;;;15.34;100.00
74834;BME280;63361;52.384;20.930;2024-03-23T12:59:58;98932.03;;;15.46;100.00
74834;BME280;63361;52.384;20.930;2024-03-23T13:02:24;98926.06;;;15.69;100.00
74834;BME280;63361;52.384;20.930;2024-03-23T13:04:50;98924.28;;;15.76;100.00
74834;BME280;63361;52.384;20.930;2024-03-23T13:07:16;98918.69;;;16.01;100.00
74834;BME280;63361;52.384;20.930;2024-03-23T13:09:42;98919.72;;;16.28;100.00
74834;BME280;63361;52.384;20.930;2024-03-23T13:12:07;98904.63;;;16.14;100.00
74834;BME280;63361;52.384;20.930;2024-03-23T13:14:33;98912.25;;;16.25;100.00
74834;BME280;63361;52.384;20.930;2024-03-23T13:16:59;98903.28;;;16.24;100.00
74834;BME280;63361;52.384;20.930;2024-03-23T13:19:24;98907.22;;;16.42;100.00
74834;BME280;63361;52.384;20.930;2024-03-23T13:21:56;98904.13;;;16.44;100.00
74834;BME280;63361;52.384;20.930;2024-03-23T13:24:22;98881.25;;;16.29;100.00
74834;BME280;63361;52.384;20.930;2024-03-23T13:26:49;98894.69;;;16.06;100.00
74834;BME280;63361;52.384;20.930;2024-03-23T13:29:15;98881.66;;;15.80;100.00
74834;BME280;63361;52.384;20.930;2024-03-23T13:31:40;98869.25;;;15.52;100.00
74834;BME280;63361;52.384;20.930;2024-03-23T13:34:05;98853.00;;;15.39;100.00
74834;BME280;63361;52.384;20.930;2024-03-23T13:36:31;98859.03;;;15.33;100.00
74834;BME280;63361;52.384;20.930;2024-03-23T13:38:56;98855.94;;;15.19;100.00
74834;BME280;63361;52.384;20.930;2024-03-23T13:41:21;98837.69;;;15.03;100.00
74834;BME280;63361;52.384;20.930;2024-03-23T13:43:47;98831.47;;;14.75;100.00
74834;BME280;63361;52.384;20.930;2024-03-23T13:46:12;98820.84;;;14.42;100.00
74834;BME280;63361;52.384;20.930;2024-03-23T13:48:37;98836.97;;;14.63;100.00
74834;BME280;63361;52.384;20.930;2024-03-23T13:51:04;98841.78;;;14.69;100.00
74834;BME280;63361;52.384;20.930;2024-03-23T13:53:30;98816.41;;;14.37;100.00